Time;durP1;ratioP1;P1;durP2;ratioP2;P2;SDS_P1;SDS_P2;PMS_P1;PMS_P2;Temp;Humidity;BMP_temperature;BMP_pressure;BME280_temperature;BME280_humidity;BME280_pressure;Samples;Min_cycle;Max_cycle;Signal;HPM_P1;HPM_P2
2023/08/19 00:02:18;;;;;;;;;;;;;;;28.08;44.23;101827.25;5058617;28;19921;-83
2023/08/19 00:04:43;;;;;;;;;;;;;;;28.08;44.19;101826.44;5065108;28;19921;-83
2023/08/19 00:07:08;;;;;;;;;;;;;;;28.04;44.40;101820.81;5066809;28;19932;-82
2023/08/19 00:09:37;;;;;;;;;;;;;;;28.03;44.41;101818.41;5067354;28;19967;-82
2023/08/19 00:12:02;;;;;;;;;;;;;;;28.00;44.45;101809.66;5063426;28;19970;-83
2023/08/19 00:14:28;;;;;;;;;;;;;;;27.99;44.65;101807.25;5064497;28;19917;-83
2023/08/19 00:16:54;;;;;;;;;;;;;;;27.98;44.43;101811.94;5066177;28;20037;-82
2023/08/19 00:19:19;;;;;;;;;;;;;;;27.98;44.36;101809.19;5069132;28;19916;-83
2023/08/19 00:21:44;;;;;;;;;;;;;;;27.99;44.56;101823.78;5060296;28;20384;-83
2023/08/19 00:24:10;;;;;;;;;;;;;;;27.99;44.67;101816.31;5062765;28;20031;-83
2023/08/19 00:26:35;;;;;;;;;;;;;;;27.96;44.76;101818.94;5064472;28;19917;-83
2023/08/19 00:29:00;;;;;;;;;;;;;;;27.94;44.63;101822.03;5057525;28;20006;-83
2023/08/19 00:31:27;;;;;;;;;;;;;;;27.92;44.45;101818.84;5055225;28;19949;-83
2023/08/19 00:33:52;;;;;;;;;;;;;;;27.89;44.79;101815.97;5057762;28;19956;-83
2023/08/19 00:36:17;;;;;;;;;;;;;;;27.86;44.83;101811.13;5059894;28;19955;-83
2023/08/19 00:38:44;;;;;;;;;;;;;;;27.84;44.93;101808.72;5063028;28;19924;-83
2023/08/19 00:41:09;;;;;;;;;;;;;;;27.82;44.87;101802.72;5057882;28;19916;-83
2023/08/19 00:43:36;;;;;;;;;;;;;;;27.82;44.78;101804.66;5063990;28;20402;-82
2023/08/19 00:46:01;;;;;;;;;;;;;;;27.80;44.96;101816.03;5058816;28;19920;-82
2023/08/19 00:48:27;;;;;;;;;;;;;;;27.79;44.96;101803.41;5057689;28;19925;-83
2023/08/19 00:50:53;;;;;;;;;;;;;;;27.76;45.05;101801.34;5055992;28;19924;-82
2023/08/19 00:53:19;;;;;;;;;;;;;;;27.72;45.17;101800.41;5063837;28;19916;-83
2023/08/19 00:55:44;;;;;;;;;;;;;;;27.69;45.11;101799.16;5053129;28;19920;-83
2023/08/19 00:58:10;;;;;;;;;;;;;;;27.71;45.23;101801.56;5055413;28;19921;-83
2023/08/19 01:00:35;;;;;;;;;;;;;;;27.71;45.09;101798.00;5056045;28;19924;-83
2023/08/19 01:03:01;;;;;;;;;;;;;;;27.67;45.12;101800.63;5056236;28;19916;-83
2023/08/19 01:05:40;;;;;;;;;;;;;;;27.65;45.30;101792.72;5060450;28;19956;-83
2023/08/19 01:08:07;;;;;;;;;;;;;;;27.63;45.27;101794.97;5057402;28;20178;-83
2023/08/19 01:10:39;;;;;;;;;;;;;;;27.61;45.36;101788.16;5059383;28;20179;-82
2023/08/19 01:13:04;;;;;;;;;;;;;;;27.58;45.61;101794.34;5056259;28;19974;-83
2023/08/19 01:15:33;;;;;;;;;;;;;;;27.53;45.55;101789.06;5055105;28;19956;-83
2023/08/19 01:17:59;;;;;;;;;;;;;;;27.51;45.62;101797.66;5054420;28;19916;-83
2023/08/19 01:20:32;;;;;;;;;;;;;;;27.50;45.89;101795.25;5054996;28;19923;-82
2023/08/19 01:23:13;;;;;;;;;;;;;;;27.47;45.75;101799.50;5054483;28;19950;-83
2023/08/19 01:25:41;;;;;;;;;;;;;;;27.44;45.92;101791.09;5056370;28;19920;-83
2023/08/19 01:28:07;;;;;;;;;;;;;;;27.42;45.74;101787.88;5059759;28;20362;-82
2023/08/19 01:30:33;;;;;;;;;;;;;;;27.39;45.89;101792.91;5060955;28;19916;-82
2023/08/19 01:32:59;;;;;;;;;;;;;;;27.38;45.95;101787.75;5057092;28;19917;-83
2023/08/19 01:35:24;;;;;;;;;;;;;;;27.36;45.81;101781.78;5058428;28;20292;-83
2023/08/19 01:37:59;;;;;;;;;;;;;;;27.35;46.13;101782.91;5058168;28;19916;-83
2023/08/19 01:40:25;;;;;;;;;;;;;;;27.32;45.76;101789.91;5058277;28;20303;-82
2023/08/19 01:42:50;;;;;;;;;;;;;;;27.31;45.78;101785.53;5056957;28;19916;-82
2023/08/19 01:45:16;;;;;;;;;;;;;;;27.30;45.71;101786.69;5059233;28;19916;-83
2023/08/19 01:47:45;;;;;;;;;;;;;;;27.29;45.80;101784.25;5063787;28;19924;-83
2023/08/19 01:50:10;;;;;;;;;;;;;;;27.28;45.81;101785.38;5063632;28;20421;-83
2023/08/19 01:52:36;;;;;;;;;;;;;;;27.25;45.89;101784.09;5062090;28;19916;-83
2023/08/19 01:55:02;;;;;;;;;;;;;;;27.23;45.75;101780.91;5061798;28;19970;-83
2023/08/19 01:57:27;;;;;;;;;;;;;;;27.20;45.86;101781.56;5056827;28;19916;-83
2023/08/19 01:59:55;;;;;;;;;;;;;;;27.18;45.84;101783.06;5061428;28;19917;-82
2023/08/19 02:02:21;;;;;;;;;;;;;;;27.10;46.13;101779.22;5058570;28;19920;-83
2023/08/19 02:04:47;;;;;;;;;;;;;;;27.06;46.18;101770.84;5057996;28;20311;-83
2023/08/19 02:07:12;;;;;;;;;;;;;;;27.07;46.14;101785.38;5059772;28;20364;-83
2023/08/19 02:09:38;;;;;;;;;;;;;;;27.06;46.32;101783.78;5060203;28;19912;-83
2023/08/19 02:12:03;;;;;;;;;;;;;;;27.05;46.22;101784.91;5054600;28;19982;-82
2023/08/19 02:14:29;;;;;;;;;;;;;;;27.03;46.30;101785.25;5061449;28;20861;-82
2023/08/19 02:16:54;;;;;;;;;;;;;;;27.03;46.28;101779.75;5064089;28;19924;-83
2023/08/19 02:19:19;;;;;;;;;;;;;;;27.03;46.10;101776.19;5066433;28;19917;-83
2023/08/19 02:21:45;;;;;;;;;;;;;;;27.00;46.23;101774.94;5065221;28;20521;-83
2023/08/19 02:24:10;;;;;;;;;;;;;;;26.99;46.30;101772.47;5057941;28;19920;-82
2023/08/19 02:26:36;;;;;;;;;;;;;;;26.97;46.18;101778.31;5060040;28;19925;-83
2023/08/19 02:29:01;;;;;;;;;;;;;;;26.98;46.11;101779.94;5065265;28;19924;-83
2023/08/19 02:31:26;;;;;;;;;;;;;;;26.98;46.24;101779.94;5062152;28;20286;-82
2023/08/19 02:33:52;;;;;;;;;;;;;;;26.99;46.16;101772.47;5059595;28;19928;-83
2023/08/19 02:36:17;;;;;;;;;;;;;;;26.97;46.19;101775.56;5053130;28;20315;-82
2023/08/19 02:38:42;;;;;;;;;;;;;;;26.96;46.27;101773.16;5053593;28;19932;-83
2023/08/19 02:41:08;;;;;;;;;;;;;;;26.93;46.48;101771.88;5056784;28;19943;-83
2023/08/19 02:43:33;;;;;;;;;;;;;;;26.93;46.45;101782.06;5050373;28;20388;-83
2023/08/19 02:45:58;;;;;;;;;;;;;;;26.93;46.27;101769.13;5061941;28;19944;-83
2023/08/19 02:48:24;;;;;;;;;;;;;;;26.94;46.42;101769.94;5065213;28;20019;-83
2023/08/19 02:50:52;;;;;;;;;;;;;;;26.94;46.41;101767.19;5069599;28;19931;-83
2023/08/19 02:53:17;;;;;;;;;;;;;;;26.95;46.39;101774.31;5069149;28;19943;-83
2023/08/19 02:55:43;;;;;;;;;;;;;;;26.94;46.53;101775.44;5070471;28;19924;-83
2023/08/19 02:58:08;;;;;;;;;;;;;;;26.92;46.48;101775.75;5073079;28;19923;-83
2023/08/19 03:00:35;;;;;;;;;;;;;;;26.91;46.56;101768.63;5071324;28;19927;-82
2023/08/19 03:03:01;;;;;;;;;;;;;;;26.89;46.36;101773.66;5071692;28;19920;-83
2023/08/19 03:05:26;;;;;;;;;;;;;;;26.87;46.49;101775.94;5071098;28;19922;-83
2023/08/19 03:07:51;;;;;;;;;;;;;;;26.87;46.47;101772.41;5070263;28;20058;-83
2023/08/19 03:10:17;;;;;;;;;;;;;;;26.84;46.50;101775.81;5072409;28;20442;-83
2023/08/19 03:12:42;;;;;;;;;;;;;;;26.84;46.42;101773.06;5070251;28;19932;-82
2023/08/19 03:15:07;;;;;;;;;;;;;;;26.82;46.44;101778.91;5071599;28;19943;-83
2023/08/19 03:17:33;;;;;;;;;;;;;;;26.79;46.38;101774.06;5071010;28;20394;-83
2023/08/19 03:19:58;;;;;;;;;;;;;;;26.77;46.67;101766.16;5069025;28;19924;-83
2023/08/19 03:22:23;;;;;;;;;;;;;;;26.74;46.67;101764.06;5072254;28;20008;-83
2023/08/19 03:24:49;;;;;;;;;;;;;;;26.73;46.63;101765.19;5065777;28;20308;-83
2023/08/19 03:27:14;;;;;;;;;;;;;;;26.71;46.56;101770.22;5067804;28;20412;-83
2023/08/19 03:29:40;;;;;;;;;;;;;;;26.69;46.60;101764.25;5068171;28;19916;-82
2023/08/19 03:32:05;;;;;;;;;;;;;;;26.66;46.68;101767.69;5069509;28;20023;-83
2023/08/19 03:34:30;;;;;;;;;;;;;;;26.64;46.80;101769.97;5066294;28;19923;-82
2023/08/19 03:36:56;;;;;;;;;;;;;;;26.65;46.75;101771.56;5070698;28;19920;-83
2023/08/19 03:39:21;;;;;;;;;;;;;;;26.64;46.92;101774.66;5067894;28;19920;-83
2023/08/19 03:41:46;;;;;;;;;;;;;;;26.63;46.91;101784.84;5069892;28;20122;-83
2023/08/19 03:44:12;;;;;;;;;;;;;;;26.61;47.04;101775.31;5070420;28;19916;-83
2023/08/19 03:46:38;;;;;;;;;;;;;;;26.60;47.09;101776.47;5070399;28;19939;-84
2023/08/19 03:49:03;;;;;;;;;;;;;;;26.59;46.90;101772.09;5071781;28;20007;-83
2023/08/19 03:51:30;;;;;;;;;;;;;;;26.57;47.09;101777.94;5072399;28;19923;-83
2023/08/19 03:53:55;;;;;;;;;;;;;;;26.56;47.07;101779.03;5071036;28;20400;-83
2023/08/19 03:56:20;;;;;;;;;;;;;;;26.55;46.98;101777.44;5071239;28;19920;-83
2023/08/19 03:58:46;;;;;;;;;;;;;;;26.54;46.88;101778.56;5070771;28;19966;-83
2023/08/19 04:01:12;;;;;;;;;;;;;;;26.54;46.76;101775.81;5068545;28;19926;-83
2023/08/19 04:03:37;;;;;;;;;;;;;;;26.53;46.85;101774.22;5067924;28;19974;-83
2023/08/19 04:06:02;;;;;;;;;;;;;;;26.52;46.73;101780.03;5066746;28;19920;-83
2023/08/19 04:08:28;;;;;;;;;;;;;;;26.51;46.80;101787.47;5068685;28;19920;-83
2023/08/19 04:10:53;;;;;;;;;;;;;;;26.51;46.84;101792.97;5068073;28;19925;-83
2023/08/19 04:13:18;;;;;;;;;;;;;;;26.50;46.81;101794.91;5069244;28;19958;-83
2023/08/19 04:15:44;;;;;;;;;;;;;;;26.47;46.89;101792.84;5068838;28;20399;-83
2023/08/19 04:18:10;;;;;;;;;;;;;;;26.44;46.74;101793.50;5069423;28;20376;-83
2023/08/19 04:20:37;;;;;;;;;;;;;;;26.40;46.96;101789.81;5068399;28;19943;-83
2023/08/19 04:23:02;;;;;;;;;;;;;;;26.40;46.78;101791.75;5069312;28;19924;-83
2023/08/19 04:25:28;;;;;;;;;;;;;;;26.41;46.92;101794.16;5067732;28;19916;-83
2023/08/19 04:27:53;;;;;;;;;;;;;;;26.41;46.79;101793.38;5068132;28;19924;-83
2023/08/19 04:30:19;;;;;;;;;;;;;;;26.41;46.90;101793.38;5066806;28;19931;-83
2023/08/19 04:32:44;;;;;;;;;;;;;;;26.41;46.97;101791.41;5065695;28;19927;-83
2023/08/19 04:35:10;;;;;;;;;;;;;;;26.45;47.09;101799.81;5068166;28;20067;-83
2023/08/19 04:37:35;;;;;;;;;;;;;;;26.48;47.12;101791.69;5067497;28;20308;-83
2023/08/19 04:40:00;;;;;;;;;;;;;;;26.52;47.25;101800.09;5065230;28;20350;-83
2023/08/19 04:42:26;;;;;;;;;;;;;;;26.55;47.30;101802.16;5068454;28;19916;-83
2023/08/19 04:44:51;;;;;;;;;;;;;;;26.61;47.26;101813.78;5066283;28;20205;-83
2023/08/19 04:47:17;;;;;;;;;;;;;;;26.66;47.11;101806.16;5065388;28;20155;-83
2023/08/19 04:49:42;;;;;;;;;;;;;;;26.73;47.20;101814.69;5064571;28;19994;-84
2023/08/19 04:52:08;;;;;;;;;;;;;;;26.78;46.88;101811.75;5064952;28;19927;-83
2023/08/19 04:54:33;;;;;;;;;;;;;;;26.87;47.10;101816.41;5065155;28;20384;-83
2023/08/19 04:56:59;;;;;;;;;;;;;;;26.95;47.07;101807.31;5063682;28;19960;-83
2023/08/19 04:59:24;;;;;;;;;;;;;;;27.03;46.97;101810.00;5063926;28;19944;-83
2023/08/19 05:01:49;;;;;;;;;;;;;;;27.12;46.97;101815.47;5063830;28;20034;-83
2023/08/19 05:04:14;;;;;;;;;;;;;;;27.17;46.88;101815.25;5065511;28;20296;-83
2023/08/19 05:06:40;;;;;;;;;;;;;;;27.25;46.76;101811.63;5062079;28;19923;-83
2023/08/19 05:09:05;;;;;;;;;;;;;;;27.33;46.90;101812.72;5065433;28;20023;-84
2023/08/19 05:11:30;;;;;;;;;;;;;;;27.40;46.95;101819.28;5062208;28;19960;-83
2023/08/19 05:13:56;;;;;;;;;;;;;;;27.49;46.90;101821.16;5062261;28;19978;-83
2023/08/19 05:16:21;;;;;;;;;;;;;;;27.57;46.88;101826.59;5064861;28;20379;-83
2023/08/19 05:18:50;;;;;;;;;;;;;;;27.63;46.85;101821.69;5064417;28;19978;-83
2023/08/19 05:21:15;;;;;;;;;;;;;;;27.67;47.12;101825.41;5062654;28;19917;-83
2023/08/19 05:23:40;;;;;;;;;;;;;;;27.72;46.92;101833.44;5064162;28;19985;-82
2023/08/19 05:26:05;;;;;;;;;;;;;;;27.78;47.06;101834.84;5064381;28;20437;-83
2023/08/19 05:28:31;;;;;;;;;;;;;;;27.89;46.80;101830.53;5065369;28;19928;-83
2023/08/19 05:30:56;;;;;;;;;;;;;;;28.00;46.60;101828.94;5065184;28;19928;-83
2023/08/19 05:33:22;;;;;;;;;;;;;;;28.12;47.10;101824.63;5066798;28;20484;-83
2023/08/19 05:35:47;;;;;;;;;;;;;;;28.20;46.86;101829.25;5064220;28;20059;-84
2023/08/19 05:38:12;;;;;;;;;;;;;;;28.31;46.91;101826.84;5056397;28;19920;-83
2023/08/19 05:40:38;;;;;;;;;;;;;;;28.39;47.04;101826.78;5061886;28;19916;-83
2023/08/19 05:43:03;;;;;;;;;;;;;;;28.48;46.83;101826.66;5063007;28;19925;-83
2023/08/19 05:45:28;;;;;;;;;;;;;;;28.56;47.15;101826.56;5064011;28;19917;-83
2023/08/19 05:47:53;;;;;;;;;;;;;;;28.65;46.61;101826.44;5062177;28;20752;-84
2023/08/19 05:50:20;;;;;;;;;;;;;;;28.76;46.73;101824.03;5059964;28;19959;-84
2023/08/19 05:52:45;;;;;;;;;;;;;;;28.89;46.54;101831.94;5063793;28;19921;-83
2023/08/19 05:55:11;;;;;;;;;;;;;;;29.03;46.53;101826.06;5064721;28;19916;-83
2023/08/19 05:57:36;;;;;;;;;;;;;;;29.11;46.28;101836.19;5062150;28;19931;-83
2023/08/19 06:00:03;;;;;;;;;;;;;;;29.21;46.21;101818.34;5063817;28;19935;-83
2023/08/19 06:02:28;;;;;;;;;;;;;;;29.32;46.21;101824.19;5061923;28;19919;-83
2023/08/19 06:04:53;;;;;;;;;;;;;;;29.39;45.93;101829.91;5060574;28;20299;-83
2023/08/19 06:07:25;;;;;;;;;;;;;;;29.42;46.03;101821.72;5065124;28;20292;-83
2023/08/19 06:09:50;;;;;;;;;;;;;;;29.46;45.68;101821.88;5064903;28;20059;-83
2023/08/19 06:12:16;;;;;;;;;;;;;;;29.50;46.01;101824.72;5070253;28;20010;-83
2023/08/19 06:14:41;;;;;;;;;;;;;;;29.60;46.00;101819.50;5064624;28;19913;-84
2023/08/19 06:17:06;;;;;;;;;;;;;;;29.73;45.74;101828.53;5064522;28;20001;-83
2023/08/19 06:19:32;;;;;;;;;;;;;;;29.88;45.42;101822.25;5065807;28;19916;-83
2023/08/19 06:21:57;;;;;;;;;;;;;;;29.95;45.67;101825.19;5064009;28;19932;-83
2023/08/19 06:24:22;;;;;;;;;;;;;;;30.09;45.60;101827.56;5065521;28;19924;-83
2023/08/19 06:26:47;;;;;;;;;;;;;;;30.16;45.25;101827.72;5062120;28;20064;-83
2023/08/19 06:29:13;;;;;;;;;;;;;;;30.28;45.06;101833.19;5055724;28;19924;-83
2023/08/19 06:31:38;;;;;;;;;;;;;;;30.44;45.15;101832.41;5059023;28;19908;-83
2023/08/19 06:34:04;;;;;;;;;;;;;;;30.57;44.84;101833.91;5066655;28;20307;-84
2023/08/19 06:36:29;;;;;;;;;;;;;;;30.65;44.45;101832.94;5066992;28;20388;-83
2023/08/19 06:39:07;;;;;;;;;;;;;;;30.69;44.77;101831.06;5064077;28;20274;-83
2023/08/19 06:41:34;;;;;;;;;;;;;;;30.66;44.66;101837.31;5067210;28;19970;-82
2023/08/19 06:44:01;;;;;;;;;;;;;;;30.62;45.05;101841.97;5059367;28;20018;-83
2023/08/19 06:46:28;;;;;;;;;;;;;;;30.62;44.40;101837.22;5065133;28;19968;-82
2023/08/19 06:48:53;;;;;;;;;;;;;;;30.63;44.91;101847.13;5064104;28;20008;-83
2023/08/19 06:51:19;;;;;;;;;;;;;;;30.63;44.79;101844.38;5068674;28;20010;-82
2023/08/19 06:53:44;;;;;;;;;;;;;;;30.63;44.99;101843.56;5062339;28;19927;-83
2023/08/19 06:56:09;;;;;;;;;;;;;;;30.68;44.82;101846.03;5061388;28;19924;-83
2023/08/19 06:58:41;;;;;;;;;;;;;;;30.73;44.48;101842.22;5061938;28;19977;-83
2023/08/19 07:01:10;;;;;;;;;;;;;;;30.78;44.57;101844.72;5064005;28;19920;-83
2023/08/19 07:03:36;;;;;;;;;;;;;;;30.81;44.58;101849.53;5062326;28;19970;-84
2023/08/19 07:06:02;;;;;;;;;;;;;;;30.85;44.54;101844.88;5069947;28;19916;-82
2023/08/19 07:08:30;;;;;;;;;;;;;;;30.84;44.89;101855.13;5066759;28;20625;-83
2023/08/19 07:10:57;;;;;;;;;;;;;;;30.84;44.24;101860.66;5063345;28;19962;-82
2023/08/19 07:13:22;;;;;;;;;;;;;;;30.87;44.42;101857.16;5061908;28;19924;-83
2023/08/19 07:15:52;;;;;;;;;;;;;;;30.93;44.57;101854.94;5062199;28;19921;-83
2023/08/19 07:18:20;;;;;;;;;;;;;;;31.02;44.46;101851.97;5072614;28;20400;-83
2023/08/19 07:20:46;;;;;;;;;;;;;;;31.07;44.33;101854.47;5073037;28;19948;-83
2023/08/19 07:23:12;;;;;;;;;;;;;;;31.08;44.33;101859.66;5064690;28;19966;-82
2023/08/19 07:25:38;;;;;;;;;;;;;;;31.17;44.29;101865.81;5066208;28;19947;-83
2023/08/19 07:28:04;;;;;;;;;;;;;;;31.32;44.38;101857.81;5069121;28;20895;-82
2023/08/19 07:30:30;;;;;;;;;;;;;;;31.51;44.07;101858.63;5063254;28;19916;-83
2023/08/19 07:32:55;;;;;;;;;;;;;;;31.74;44.17;101852.38;5063921;28;19917;-83
2023/08/19 07:35:20;;;;;;;;;;;;;;;31.95;43.74;101858.31;5068879;28;19927;-82
2023/08/19 07:37:46;;;;;;;;;;;;;;;32.11;44.10;101855.44;5067683;28;19923;-83
2023/08/19 07:40:11;;;;;;;;;;;;;;;32.26;43.44;101854.53;5067427;28;20507;-84
2023/08/19 07:42:37;;;;;;;;;;;;;;;32.37;43.39;101854.75;5068783;28;19917;-84
2023/08/19 07:45:02;;;;;;;;;;;;;;;32.53;43.38;101857.41;5065736;28;20563;-84
2023/08/19 07:47:27;;;;;;;;;;;;;;;32.69;42.91;101858.84;5065908;28;20015;-83
2023/08/19 07:49:53;;;;;;;;;;;;;;;32.81;42.82;101854.28;5072400;28;20441;-83
2023/08/19 07:52:18;;;;;;;;;;;;;;;32.98;42.99;101860.09;5071590;28;20426;-85
2023/08/19 07:54:43;;;;;;;;;;;;;;;33.14;42.59;101851.59;5069171;28;19931;-84
2023/08/19 07:57:09;;;;;;;;;;;;;;;33.28;42.50;101854.56;5073060;28;20659;-84
2023/08/19 07:59:34;;;;;;;;;;;;;;;33.41;42.03;101848.81;5068123;28;19959;-82
2023/08/19 08:01:59;;;;;;;;;;;;;;;33.51;42.21;101857.25;5064279;28;19927;-84
2023/08/19 08:04:25;;;;;;;;;;;;;;;33.66;42.18;101855.47;5075040;28;19920;-82
2023/08/19 08:06:50;;;;;;;;;;;;;;;33.82;41.91;101856.03;5068598;28;19925;-83
2023/08/19 08:09:15;;;;;;;;;;;;;;;33.91;41.59;101845.44;5064555;28;19916;-83
2023/08/19 08:11:41;;;;;;;;;;;;;;;34.05;41.61;101852.31;5072539;28;19917;-82
2023/08/19 08:14:06;;;;;;;;;;;;;;;34.14;41.38;101852.81;5072769;28;19923;-83
2023/08/19 08:16:32;;;;;;;;;;;;;;;34.23;41.50;101850.50;5061965;28;19924;-83
2023/08/19 08:18:57;;;;;;;;;;;;;;;34.31;40.78;101851.38;5064278;28;19940;-83
2023/08/19 08:21:23;;;;;;;;;;;;;;;34.36;40.91;101845.50;5063332;28;20819;-81
2023/08/19 08:23:49;;;;;;;;;;;;;;;34.49;41.16;101847.59;5062439;28;19963;-83
2023/08/19 08:26:14;;;;;;;;;;;;;;;34.64;40.71;101851.25;5061562;28;19924;-82
2023/08/19 08:28:40;;;;;;;;;;;;;;;34.78;40.36;101847.78;5061924;28;20366;-81
2023/08/19 08:31:05;;;;;;;;;;;;;;;34.82;40.00;101843.03;5063790;28;20414;-83
2023/08/19 08:33:31;;;;;;;;;;;;;;;34.89;39.17;101839.53;5063177;28;19917;-82
2023/08/19 08:35:56;;;;;;;;;;;;;;;34.97;39.73;101841.16;5060038;28;19916;-83
2023/08/19 08:38:21;;;;;;;;;;;;;;;35.10;39.56;101846.03;5067110;28;19954;-83
2023/08/19 08:40:47;;;;;;;;;;;;;;;35.24;39.18;101850.06;5063405;28;19920;-81
2023/08/19 08:43:13;;;;;;;;;;;;;;;35.32;38.41;101843.34;5065639;28;20058;-83
2023/08/19 08:45:39;;;;;;;;;;;;;;;35.47;38.55;101835.88;5063732;28;19924;-83
2023/08/19 08:48:05;;;;;;;;;;;;;;;35.62;38.68;101838.31;5065198;28;20410;-83
2023/08/19 08:50:31;;;;;;;;;;;;;;;35.70;38.54;101841.91;5064085;28;19917;-84
2023/08/19 08:52:57;;;;;;;;;;;;;;;35.82;38.54;101841.53;5061561;28;20372;-84
2023/08/19 08:55:23;;;;;;;;;;;;;;;35.80;37.83;101840.34;5063646;28;19927;-84
2023/08/19 08:57:48;;;;;;;;;;;;;;;35.89;38.02;101838.78;5063356;28;19924;-83
2023/08/19 09:00:14;;;;;;;;;;;;;;;36.05;38.38;101841.19;5060290;28;19924;-82
2023/08/19 09:02:40;;;;;;;;;;;;;;;36.16;38.20;101838.44;5066222;28;20291;-83
2023/08/19 09:05:06;;;;;;;;;;;;;;;36.36;37.66;101842.44;5061653;28;19920;-83
2023/08/19 09:07:34;;;;;;;;;;;;;;;36.54;37.67;101840.44;5064423;28;19928;-84
2023/08/19 09:10:02;;;;;;;;;;;;;;;36.67;37.16;101838.03;5066510;28;19917;-83
2023/08/19 09:12:31;;;;;;;;;;;;;;;36.78;36.80;101847.16;5065570;28;19917;-84
2023/08/19 09:15:02;;;;;;;;;;;;;;;36.90;36.64;101840.41;5063148;28;20292;-83
2023/08/19 09:17:27;;;;;;;;;;;;;;;37.06;36.60;101834.38;5060870;28;19924;-84
2023/08/19 09:19:53;;;;;;;;;;;;;;;37.14;36.08;101844.31;5061632;28;20448;-86
2023/08/19 09:22:19;;;;;;;;;;;;;;;37.21;35.73;101849.88;5060063;28;19920;-85
2023/08/19 09:24:45;;;;;;;;;;;;;;;37.22;34.51;101846.69;5064343;28;19959;-85
2023/08/19 09:27:10;;;;;;;;;;;;;;;37.18;35.59;101848.69;5065240;28;19921;-85
2023/08/19 09:29:35;;;;;;;;;;;;;;;37.20;35.44;101848.28;5063843;28;19923;-85
2023/08/19 09:32:02;;;;;;;;;;;;;;;37.18;34.87;101847.91;5062680;28;19940;-84
2023/08/19 09:34:28;;;;;;;;;;;;;;;37.18;35.17;101843.13;5056534;28;19916;-84
2023/08/19 09:36:54;;;;;;;;;;;;;;;37.26;35.08;101849.50;5060221;28;19928;-83
2023/08/19 09:39:20;;;;;;;;;;;;;;;37.37;34.36;101841.88;5064743;28;19916;-84
2023/08/19 09:41:45;;;;;;;;;;;;;;;37.50;34.75;101839.38;5057355;28;19928;-84
2023/08/19 09:44:12;;;;;;;;;;;;;;;37.65;34.84;101835.31;5063907;28;19924;-84
2023/08/19 09:46:38;;;;;;;;;;;;;;;37.85;34.86;101835.63;5057880;28;20018;-85
2023/08/19 09:49:03;;;;;;;;;;;;;;;38.02;34.40;101837.50;5059189;28;20543;-84
2023/08/19 09:51:29;;;;;;;;;;;;;;;38.12;33.82;101832.25;5063301;28;19927;-83
2023/08/19 09:53:57;;;;;;;;;;;;;;;38.16;34.14;101842.19;5057195;28;20037;-85
2023/08/19 09:56:24;;;;;;;;;;;;;;;38.23;33.86;101838.56;5061545;28;19916;-84
2023/08/19 09:58:51;;;;;;;;;;;;;;;38.26;32.30;101840.56;5060073;28;19963;-85
2023/08/19 10:01:17;;;;;;;;;;;;;;;38.39;32.26;101834.00;5060106;28;19916;-85
2023/08/19 10:03:42;;;;;;;;;;;;;;;38.55;33.17;101836.25;5062640;28;19923;-85
2023/08/19 10:06:10;;;;;;;;;;;;;;;38.64;32.59;101833.03;5057180;28;20145;-85
2023/08/19 10:08:38;;;;;;;;;;;;;;;38.71;32.61;101820.94;5063975;28;20053;-84
2023/08/19 10:11:04;;;;;;;;;;;;;;;38.75;32.14;101832.91;5061892;28;19928;-84
2023/08/19 10:13:31;;;;;;;;;;;;;;;38.80;32.47;101829.66;5061336;28;20000;-85
2023/08/19 10:15:58;;;;;;;;;;;;;;;38.85;32.61;101820.78;5055918;28;19920;-84
2023/08/19 10:18:26;;;;;;;;;;;;;;;38.83;31.38;101818.41;5061646;28;19970;-83
2023/08/19 10:20:57;;;;;;;;;;;;;;;38.92;32.29;101832.69;5059324;28;19971;-84
2023/08/19 10:23:23;;;;;;;;;;;;;;;39.07;32.08;101826.94;5057111;28;19921;-82
2023/08/19 10:25:48;;;;;;;;;;;;;;;39.22;31.76;101819.97;5058070;28;19924;-84
2023/08/19 10:28:30;;;;;;;;;;;;;;;39.34;31.60;101824.22;5059818;28;20006;-83
2023/08/19 10:31:08;;;;;;;;;;;;;;;39.40;31.41;101816.94;5055122;28;19920;-84
2023/08/19 10:33:42;;;;;;;;;;;;;;;39.50;30.85;101818.78;5057437;28;19969;-84
2023/08/19 10:36:08;;;;;;;;;;;;;;;39.54;30.61;101816.75;5054821;28;21492;-81
2023/08/19 10:38:44;;;;;;;;;;;;;;;39.64;30.58;101815.00;5053727;28;19920;-83
2023/08/19 10:41:24;;;;;;;;;;;;;;;39.79;31.10;101816.38;5056476;28;19970;-83
2023/08/19 10:43:58;;;;;;;;;;;;;;;39.90;30.84;101813.41;5060784;28;19936;-84
2023/08/19 10:46:29;;;;;;;;;;;;;;;39.98;30.72;101807.28;5058374;28;19921;-86
2023/08/19 10:48:55;;;;;;;;;;;;;;;40.03;30.52;101809.59;5057980;28;19960;-83
2023/08/19 10:51:20;;;;;;;;;;;;;;;39.98;28.69;101806.50;5058782;28;20297;-82
2023/08/19 10:53:49;;;;;;;;;;;;;;;39.87;29.02;101807.44;5059055;28;20486;-86
2023/08/19 10:56:17;;;;;;;;;;;;;;;40.05;30.38;101800.78;5058869;28;20397;-83
2023/08/19 10:58:43;;;;;;;;;;;;;;;40.17;30.22;101794.53;5062549;28;19958;-84
2023/08/19 11:01:08;;;;;;;;;;;;;;;40.31;29.70;101791.47;5058475;28;20412;-83
2023/08/19 11:03:34;;;;;;;;;;;;;;;40.46;30.40;101787.22;5060368;28;20661;-82
2023/08/19 11:06:04;;;;;;;;;;;;;;;40.57;29.85;101794.63;5058625;28;20593;-82
2023/08/19 11:08:30;;;;;;;;;;;;;;;40.71;29.63;101797.97;5062637;28;19955;-83
2023/08/19 11:10:55;;;;;;;;;;;;;;;40.74;29.08;101802.72;5065099;28;19963;-84
2023/08/19 11:13:22;;;;;;;;;;;;;;;40.82;29.01;101797.78;5064076;28;19916;-83
2023/08/19 11:15:49;;;;;;;;;;;;;;;40.74;29.15;101799.13;5054901;28;20470;-83
2023/08/19 11:18:21;;;;;;;;;;;;;;;40.84;28.95;101789.72;5056830;28;19926;-85
2023/08/19 11:20:46;;;;;;;;;;;;;;;40.99;28.45;101790.22;5062013;28;20380;-83
2023/08/19 11:23:11;;;;;;;;;;;;;;;41.11;28.82;101788.75;5060878;28;20101;-83
2023/08/19 11:25:37;;;;;;;;;;;;;;;41.21;28.56;101791.34;5061615;28;19974;-83
2023/08/19 11:28:03;;;;;;;;;;;;;;;41.28;28.26;101796.03;5060847;28;19968;-83
2023/08/19 11:30:29;;;;;;;;;;;;;;;41.34;27.99;101794.31;5057050;28;19955;-85
2023/08/19 11:32:54;;;;;;;;;;;;;;;41.29;27.99;101795.59;5059917;28;19986;-83
2023/08/19 11:35:20;;;;;;;;;;;;;;;41.28;27.98;101805.25;5063145;28;19927;-84
2023/08/19 11:37:45;;;;;;;;;;;;;;;41.20;27.88;101795.38;5062406;28;19974;-84
2023/08/19 11:40:13;;;;;;;;;;;;;;;41.23;27.59;101793.72;5062762;28;19981;-84
2023/08/19 11:42:38;;;;;;;;;;;;;;;41.21;27.52;101794.16;5059897;28;19928;-83
2023/08/19 11:45:07;;;;;;;;;;;;;;;41.34;27.92;101792.28;5060099;28;19925;-83
2023/08/19 11:47:34;;;;;;;;;;;;;;;41.42;27.12;101790.09;5062449;28;20380;-83
2023/08/19 11:49:59;;;;;;;;;;;;;;;41.38;27.27;101797.81;5065186;28;19917;-84
2023/08/19 11:52:25;;;;;;;;;;;;;;;41.28;26.39;101791.19;5061642;28;20396;-84
2023/08/19 11:55:00;;;;;;;;;;;;;;;41.17;26.62;101789.84;5058884;28;19947;-82
2023/08/19 11:57:31;;;;;;;;;;;;;;;41.22;27.32;101792.13;5064696;28;19954;-84
2023/08/19 11:59:59;;;;;;;;;;;;;;;41.35;27.03;101790.25;5064800;28;19920;-84
2023/08/19 12:02:24;;;;;;;;;;;;;;;41.41;26.36;101782.88;5059576;28;19924;-84
2023/08/19 12:04:53;;;;;;;;;;;;;;;41.53;26.96;101787.84;5060994;28;21297;-83
2023/08/19 12:07:25;;;;;;;;;;;;;;;41.70;26.89;101782.25;5059676;28;20463;-83
2023/08/19 12:09:50;;;;;;;;;;;;;;;41.79;27.35;101780.41;5060473;28;21519;-84
2023/08/19 12:12:15;;;;;;;;;;;;;;;41.93;26.86;101774.41;5056569;28;20307;-84
2023/08/19 12:14:41;;;;;;;;;;;;;;;41.93;26.45;101768.00;5060811;28;20295;-85
2023/08/19 12:17:09;;;;;;;;;;;;;;;41.82;26.51;101770.28;5058666;28;19927;-84
2023/08/19 12:19:35;;;;;;;;;;;;;;;41.77;26.60;101765.97;5059750;28;19979;-83
2023/08/19 12:22:00;;;;;;;;;;;;;;;41.78;26.60;101766.75;5059255;28;19924;-82
2023/08/19 12:24:25;;;;;;;;;;;;;;;41.82;26.68;101767.47;5058654;28;19999;-83
2023/08/19 12:26:51;;;;;;;;;;;;;;;41.84;26.41;101770.66;5058912;28;19920;-83
2023/08/19 12:29:16;;;;;;;;;;;;;;;41.86;26.47;101773.81;5061394;28;20273;-83
2023/08/19 12:31:41;;;;;;;;;;;;;;;41.94;26.64;101769.56;5058712;28;19921;-83